sensor_id;sensor_type;location;lat;lon;timestamp;temperature;humidity
17998;DHT22;9124;48.144;17.098;2023-07-20T00:03:11;22.10;66.50
17998;DHT22;9124;48.144;17.098;2023-07-20T00:07:42;22.10;67.40
17998;DHT22;9124;48.144;17.098;2023-07-20T00:12:09;22.00;66.80
17998;DHT22;9124;48.144;17.098;2023-07-20T00:16:36;22.00;67.00
17998;DHT22;9124;48.144;17.098;2023-07-20T00:21:02;21.90;67.20
17998;DHT22;9124;48.144;17.098;2023-07-20T00:25:29;21.80;67.40
17998;DHT22;9124;48.144;17.098;2023-07-20T00:29:55;21.70;67.70
17998;DHT22;9124;48.144;17.098;2023-07-20T00:34:22;21.50;67.90
17998;DHT22;9124;48.144;17.098;2023-07-20T00:38:48;21.40;68.40
17998;DHT22;9124;48.144;17.098;2023-07-20T00:43:16;21.20;68.90
17998;DHT22;9124;48.144;17.098;2023-07-20T00:47:42;21.20;69.30
17998;DHT22;9124;48.144;17.098;2023-07-20T00:52:11;21.10;69.60
17998;DHT22;9124;48.144;17.098;2023-07-20T00:56:39;21.20;70.00
17998;DHT22;9124;48.144;17.098;2023-07-20T01:01:05;21.10;70.60
17998;DHT22;9124;48.144;17.098;2023-07-20T01:14:55;20.50;73.70
17998;DHT22;9124;48.144;17.098;2023-07-20T01:19:22;20.30;74.20
17998;DHT22;9124;48.144;17.098;2023-07-20T01:29:05;20.40;74.70
17998;DHT22;9124;48.144;17.098;2023-07-20T01:33:38;20.40;74.80
17998;DHT22;9124;48.144;17.098;2023-07-20T01:38:08;20.50;74.90
17998;DHT22;9124;48.144;17.098;2023-07-20T01:42:35;20.50;75.10
17998;DHT22;9124;48.144;17.098;2023-07-20T01:47:01;20.50;75.20
17998;DHT22;9124;48.144;17.098;2023-07-20T01:51:27;20.60;75.40
17998;DHT22;9124;48.144;17.098;2023-07-20T01:55:54;20.70;75.50
17998;DHT22;9124;48.144;17.098;2023-07-20T02:00:20;20.80;75.70
17998;DHT22;9124;48.144;17.098;2023-07-20T02:04:50;20.80;75.70
17998;DHT22;9124;48.144;17.098;2023-07-20T02:09:16;20.90;76.30
17998;DHT22;9124;48.144;17.098;2023-07-20T02:13:43;20.90;75.70
17998;DHT22;9124;48.144;17.098;2023-07-20T02:18:09;21.00;75.70
17998;DHT22;9124;48.144;17.098;2023-07-20T02:22:39;21.10;75.60
17998;DHT22;9124;48.144;17.098;2023-07-20T02:27:06;21.20;75.60
17998;DHT22;9124;48.144;17.098;2023-07-20T02:31:33;21.20;75.50
17998;DHT22;9124;48.144;17.098;2023-07-20T02:36:00;21.20;75.50
17998;DHT22;9124;48.144;17.098;2023-07-20T02:40:26;21.20;75.40
17998;DHT22;9124;48.144;17.098;2023-07-20T02:44:54;21.20;75.30
17998;DHT22;9124;48.144;17.098;2023-07-20T02:49:20;21.30;76.00
17998;DHT22;9124;48.144;17.098;2023-07-20T02:53:47;21.20;75.40
17998;DHT22;9124;48.144;17.098;2023-07-20T02:58:13;21.20;75.40
17998;DHT22;9124;48.144;17.098;2023-07-20T03:02:43;21.20;75.50
17998;DHT22;9124;48.144;17.098;2023-07-20T03:07:09;21.10;75.60
17998;DHT22;9124;48.144;17.098;2023-07-20T03:11:35;21.10;75.70
17998;DHT22;9124;48.144;17.098;2023-07-20T03:16:03;21.10;75.90
17998;DHT22;9124;48.144;17.098;2023-07-20T03:20:29;21.00;76.20
17998;DHT22;9124;48.144;17.098;2023-07-20T03:24:56;20.90;76.50
17998;DHT22;9124;48.144;17.098;2023-07-20T03:29:23;20.90;76.80
17998;DHT22;9124;48.144;17.098;2023-07-20T03:33:49;20.90;77.10
17998;DHT22;9124;48.144;17.098;2023-07-20T03:38:18;20.80;77.40
17998;DHT22;9124;48.144;17.098;2023-07-20T03:42:44;20.80;77.60
17998;DHT22;9124;48.144;17.098;2023-07-20T03:47:11;20.80;77.80
17998;DHT22;9124;48.144;17.098;2023-07-20T03:51:37;20.80;77.90
17998;DHT22;9124;48.144;17.098;2023-07-20T03:56:03;20.90;78.00
17998;DHT22;9124;48.144;17.098;2023-07-20T04:00:30;21.00;78.00
17998;DHT22;9124;48.144;17.098;2023-07-20T04:04:56;21.00;77.90
17998;DHT22;9124;48.144;17.098;2023-07-20T04:09:23;21.10;77.70
17998;DHT22;9124;48.144;17.098;2023-07-20T04:20:09;21.20;77.60
17998;DHT22;9124;48.144;17.098;2023-07-20T04:24:35;21.30;77.50
17998;DHT22;9124;48.144;17.098;2023-07-20T04:29:04;21.40;77.30
17998;DHT22;9124;48.144;17.098;2023-07-20T04:33:39;21.50;77.10
17998;DHT22;9124;48.144;17.098;2023-07-20T04:38:05;21.60;77.00
17998;DHT22;9124;48.144;17.098;2023-07-20T04:42:31;21.70;76.80
17998;DHT22;9124;48.144;17.098;2023-07-20T04:46:58;21.70;76.60
17998;DHT22;9124;48.144;17.098;2023-07-20T04:51:24;21.70;76.40
17998;DHT22;9124;48.144;17.098;2023-07-20T04:55:54;21.60;76.40
17998;DHT22;9124;48.144;17.098;2023-07-20T05:00:24;21.60;76.40
17998;DHT22;9124;48.144;17.098;2023-07-20T05:04:50;21.50;76.40
17998;DHT22;9124;48.144;17.098;2023-07-20T05:09:17;21.50;76.50
17998;DHT22;9124;48.144;17.098;2023-07-20T05:13:43;21.60;76.50
17998;DHT22;9124;48.144;17.098;2023-07-20T05:18:10;21.70;76.20
17998;DHT22;9124;48.144;17.098;2023-07-20T05:22:37;21.80;76.10
17998;DHT22;9124;48.144;17.098;2023-07-20T05:27:06;21.80;75.90
17998;DHT22;9124;48.144;17.098;2023-07-20T05:31:32;22.10;75.70
17998;DHT22;9124;48.144;17.098;2023-07-20T05:35:59;22.50;75.10
17998;DHT22;9124;48.144;17.098;2023-07-20T05:40:26;23.10;74.10
17998;DHT22;9124;48.144;17.098;2023-07-20T05:44:52;23.50;72.80
17998;DHT22;9124;48.144;17.098;2023-07-20T05:49:20;23.50;71.90
17998;DHT22;9124;48.144;17.098;2023-07-20T05:53:46;23.60;71.40
17998;DHT22;9124;48.144;17.098;2023-07-20T05:58:31;23.80;71.00
17998;DHT22;9124;48.144;17.098;2023-07-20T06:02:58;24.00;70.40
17998;DHT22;9124;48.144;17.098;2023-07-20T06:07:24;24.10;69.70
17998;DHT22;9124;48.144;17.098;2023-07-20T06:11:50;24.20;69.20
17998;DHT22;9124;48.144;17.098;2023-07-20T06:16:17;24.60;68.90
17998;DHT22;9124;48.144;17.098;2023-07-20T06:20:51;24.80;68.00
17998;DHT22;9124;48.144;17.098;2023-07-20T06:25:18;24.90;67.20
17998;DHT22;9124;48.144;17.098;2023-07-20T06:29:44;25.30;66.30
17998;DHT22;9124;48.144;17.098;2023-07-20T06:34:11;25.80;65.00
17998;DHT22;9124;48.144;17.098;2023-07-20T06:38:37;26.10;63.40
17998;DHT22;9124;48.144;17.098;2023-07-20T06:43:03;26.20;61.80
17998;DHT22;9124;48.144;17.098;2023-07-20T06:47:30;26.30;60.70
17998;DHT22;9124;48.144;17.098;2023-07-20T06:51:57;26.90;59.70
17998;DHT22;9124;48.144;17.098;2023-07-20T06:56:23;27.50;58.70
17998;DHT22;9124;48.144;17.098;2023-07-20T07:00:49;27.60;57.70
17998;DHT22;9124;48.144;17.098;2023-07-20T07:05:15;27.60;57.20
17998;DHT22;9124;48.144;17.098;2023-07-20T07:09:42;27.80;56.20
17998;DHT22;9124;48.144;17.098;2023-07-20T07:14:08;28.10;55.80
17998;DHT22;9124;48.144;17.098;2023-07-20T07:18:35;28.60;55.60
17998;DHT22;9124;48.144;17.098;2023-07-20T07:23:01;30.40;54.90
17998;DHT22;9124;48.144;17.098;2023-07-20T07:27:27;35.00;50.30
17998;DHT22;9124;48.144;17.098;2023-07-20T07:31:54;38.60;44.20
17998;DHT22;9124;48.144;17.098;2023-07-20T07:36:22;40.20;40.90
17998;DHT22;9124;48.144;17.098;2023-07-20T07:40:50;37.60;39.40
17998;DHT22;9124;48.144;17.098;2023-07-20T07:45:17;38.10;39.20
17998;DHT22;9124;48.144;17.098;2023-07-20T07:49:43;36.40;38.80
17998;DHT22;9124;48.144;17.098;2023-07-20T07:54:10;37.90;39.00
17998;DHT22;9124;48.144;17.098;2023-07-20T07:58:36;42.10;36.90
17998;DHT22;9124;48.144;17.098;2023-07-20T08:03:03;45.00;34.50
17998;DHT22;9124;48.144;17.098;2023-07-20T08:07:30;46.50;32.50
17998;DHT22;9124;48.144;17.098;2023-07-20T08:11:56;46.60;30.10
17998;DHT22;9124;48.144;17.098;2023-07-20T08:16:23;45.60;30.20
17998;DHT22;9124;48.144;17.098;2023-07-20T08:20:49;46.00;29.60
17998;DHT22;9124;48.144;17.098;2023-07-20T08:25:16;46.10;29.20
17998;DHT22;9124;48.144;17.098;2023-07-20T08:29:42;45.90;29.20
17998;DHT22;9124;48.144;17.098;2023-07-20T08:34:08;47.00;28.80
17998;DHT22;9124;48.144;17.098;2023-07-20T08:38:35;46.90;28.20
17998;DHT22;9124;48.144;17.098;2023-07-20T08:43:28;47.00;27.80
17998;DHT22;9124;48.144;17.098;2023-07-20T08:47:56;47.10;28.00
17998;DHT22;9124;48.144;17.098;2023-07-20T08:52:25;46.90;27.40
17998;DHT22;9124;48.144;17.098;2023-07-20T08:56:51;47.10;27.50
17998;DHT22;9124;48.144;17.098;2023-07-20T09:01:19;47.60;27.20
17998;DHT22;9124;48.144;17.098;2023-07-20T09:05:46;48.50;27.10
17998;DHT22;9124;48.144;17.098;2023-07-20T09:10:12;48.90;26.70
17998;DHT22;9124;48.144;17.098;2023-07-20T09:14:39;47.20;26.70
17998;DHT22;9124;48.144;17.098;2023-07-20T09:19:05;47.70;27.00
17998;DHT22;9124;48.144;17.098;2023-07-20T09:23:33;47.40;26.60
17998;DHT22;9124;48.144;17.098;2023-07-20T09:28:02;47.50;26.60
17998;DHT22;9124;48.144;17.098;2023-07-20T09:32:30;47.70;26.30
17998;DHT22;9124;48.144;17.098;2023-07-20T09:37:00;43.40;26.90
17998;DHT22;9124;48.144;17.098;2023-07-20T09:41:26;41.60;28.20
17998;DHT22;9124;48.144;17.098;2023-07-20T09:45:58;41.90;29.10
17998;DHT22;9124;48.144;17.098;2023-07-20T09:50:24;39.50;29.00
17998;DHT22;9124;48.144;17.098;2023-07-20T09:54:51;36.00;30.80
17998;DHT22;9124;48.144;17.098;2023-07-20T09:59:18;33.60;33.20
17998;DHT22;9124;48.144;17.098;2023-07-20T10:03:45;35.50;34.90
17998;DHT22;9124;48.144;17.098;2023-07-20T10:08:12;39.70;33.20
17998;DHT22;9124;48.144;17.098;2023-07-20T10:12:43;42.50;31.10
17998;DHT22;9124;48.144;17.098;2023-07-20T10:17:12;43.20;29.60
17998;DHT22;9124;48.144;17.098;2023-07-20T10:21:47;40.50;29.50
17998;DHT22;9124;48.144;17.098;2023-07-20T10:26:14;38.70;30.50
17998;DHT22;9124;48.144;17.098;2023-07-20T10:30:44;37.10;31.60
17998;DHT22;9124;48.144;17.098;2023-07-20T10:35:15;35.10;33.30
17998;DHT22;9124;48.144;17.098;2023-07-20T10:39:42;32.70;35.80
17998;DHT22;9124;48.144;17.098;2023-07-20T10:44:09;30.90;37.70
17998;DHT22;9124;48.144;17.098;2023-07-20T10:49:00;30.00;39.50
17998;DHT22;9124;48.144;17.098;2023-07-20T10:53:33;30.30;40.50
17998;DHT22;9124;48.144;17.098;2023-07-20T10:58:13;30.00;41.10
17998;DHT22;9124;48.144;17.098;2023-07-20T11:07:10;29.70;42.70
17998;DHT22;9124;48.144;17.098;2023-07-20T11:11:49;29.60;42.90
17998;DHT22;9124;48.144;17.098;2023-07-20T11:16:17;29.50;43.90
17998;DHT22;9124;48.144;17.098;2023-07-20T11:20:43;30.20;43.40
17998;DHT22;9124;48.144;17.098;2023-07-20T11:25:10;30.30;42.90
17998;DHT22;9124;48.144;17.098;2023-07-20T11:29:38;30.50;43.00
17998;DHT22;9124;48.144;17.098;2023-07-20T11:34:04;30.80;43.00
17998;DHT22;9124;48.144;17.098;2023-07-20T11:38:32;31.00;42.40
17998;DHT22;9124;48.144;17.098;2023-07-20T11:42:59;30.70;42.40
17998;DHT22;9124;48.144;17.098;2023-07-20T11:47:30;30.30;42.70
17998;DHT22;9124;48.144;17.098;2023-07-20T11:51:57;29.90;43.50
17998;DHT22;9124;48.144;17.098;2023-07-20T11:56:25;29.70;43.60
17998;DHT22;9124;48.144;17.098;2023-07-20T12:00:52;29.40;43.80
17998;DHT22;9124;48.144;17.098;2023-07-20T12:05:22;29.30;44.10
17998;DHT22;9124;48.144;17.098;2023-07-20T12:10:12;29.50;44.40
17998;DHT22;9124;48.144;17.098;2023-07-20T12:14:38;30.00;44.10
17998;DHT22;9124;48.144;17.098;2023-07-20T12:19:09;30.30;43.80
17998;DHT22;9124;48.144;17.098;2023-07-20T12:23:40;30.70;43.60
17998;DHT22;9124;48.144;17.098;2023-07-20T12:28:11;30.60;43.40
17998;DHT22;9124;48.144;17.098;2023-07-20T12:32:37;30.30;43.90
17998;DHT22;9124;48.144;17.098;2023-07-20T12:37:04;30.00;44.10
17998;DHT22;9124;48.144;17.098;2023-07-20T12:41:31;29.50;45.10
17998;DHT22;9124;48.144;17.098;2023-07-20T12:45:58;29.40;45.10
17998;DHT22;9124;48.144;17.098;2023-07-20T12:50:24;30.10;44.80
17998;DHT22;9124;48.144;17.098;2023-07-20T12:54:51;30.20;44.30
17998;DHT22;9124;48.144;17.098;2023-07-20T12:59:17;30.10;44.40
17998;DHT22;9124;48.144;17.098;2023-07-20T13:03:44;29.90;44.50
17998;DHT22;9124;48.144;17.098;2023-07-20T13:08:10;30.10;44.70
17998;DHT22;9124;48.144;17.098;2023-07-20T13:12:38;30.50;44.60
17998;DHT22;9124;48.144;17.098;2023-07-20T13:17:05;30.40;44.50
17998;DHT22;9124;48.144;17.098;2023-07-20T13:21:31;30.10;44.70
17998;DHT22;9124;48.144;17.098;2023-07-20T13:25:58;30.10;44.80
17998;DHT22;9124;48.144;17.098;2023-07-20T13:30:24;29.90;45.10
17998;DHT22;9124;48.144;17.098;2023-07-20T13:34:51;29.70;45.10
17998;DHT22;9124;48.144;17.098;2023-07-20T13:39:17;29.50;45.20
17998;DHT22;9124;48.144;17.098;2023-07-20T13:43:44;29.70;44.80
17998;DHT22;9124;48.144;17.098;2023-07-20T13:48:11;29.70;44.20
17998;DHT22;9124;48.144;17.098;2023-07-20T13:52:38;29.60;44.00
17998;DHT22;9124;48.144;17.098;2023-07-20T13:57:05;29.60;44.00
17998;DHT22;9124;48.144;17.098;2023-07-20T14:01:32;29.60;44.20
17998;DHT22;9124;48.144;17.098;2023-07-20T14:06:00;29.50;44.50
17998;DHT22;9124;48.144;17.098;2023-07-20T14:10:26;29.20;44.40
17998;DHT22;9124;48.144;17.098;2023-07-20T14:14:54;28.90;44.80
17998;DHT22;9124;48.144;17.098;2023-07-20T14:19:21;28.70;44.90
17998;DHT22;9124;48.144;17.098;2023-07-20T14:23:51;28.50;45.30
17998;DHT22;9124;48.144;17.098;2023-07-20T14:28:21;28.50;45.40
17998;DHT22;9124;48.144;17.098;2023-07-20T14:32:48;28.50;45.50
17998;DHT22;9124;48.144;17.098;2023-07-20T14:37:15;28.50;45.40
17998;DHT22;9124;48.144;17.098;2023-07-20T14:41:41;28.40;45.30
17998;DHT22;9124;48.144;17.098;2023-07-20T14:46:08;28.30;45.40
17998;DHT22;9124;48.144;17.098;2023-07-20T14:50:35;28.30;45.70
17998;DHT22;9124;48.144;17.098;2023-07-20T14:55:01;28.20;45.60
17998;DHT22;9124;48.144;17.098;2023-07-20T14:59:28;28.10;45.40
17998;DHT22;9124;48.144;17.098;2023-07-20T15:03:55;27.90;45.60
17998;DHT22;9124;48.144;17.098;2023-07-20T15:08:22;27.90;45.80
17998;DHT22;9124;48.144;17.098;2023-07-20T15:12:50;28.10;45.80
17998;DHT22;9124;48.144;17.098;2023-07-20T15:17:16;28.30;45.70
17998;DHT22;9124;48.144;17.098;2023-07-20T15:21:43;28.10;45.70
17998;DHT22;9124;48.144;17.098;2023-07-20T15:26:10;27.80;45.90
17998;DHT22;9124;48.144;17.098;2023-07-20T15:30:40;27.80;46.10
17998;DHT22;9124;48.144;17.098;2023-07-20T15:35:07;27.70;46.00
17998;DHT22;9124;48.144;17.098;2023-07-20T15:39:33;27.70;46.20
17998;DHT22;9124;48.144;17.098;2023-07-20T15:44:00;27.70;46.30
17998;DHT22;9124;48.144;17.098;2023-07-20T15:48:26;27.90;46.10
17998;DHT22;9124;48.144;17.098;2023-07-20T15:52:53;27.90;46.00
17998;DHT22;9124;48.144;17.098;2023-07-20T15:57:20;27.80;46.10
17998;DHT22;9124;48.144;17.098;2023-07-20T16:01:47;27.60;46.70
17998;DHT22;9124;48.144;17.098;2023-07-20T16:06:22;27.40;46.30
17998;DHT22;9124;48.144;17.098;2023-07-20T16:10:49;27.60;46.30
17998;DHT22;9124;48.144;17.098;2023-07-20T16:15:15;27.50;46.20
17998;DHT22;9124;48.144;17.098;2023-07-20T16:19:41;27.70;46.40
17998;DHT22;9124;48.144;17.098;2023-07-20T16:24:08;27.60;46.30
17998;DHT22;9124;48.144;17.098;2023-07-20T16:28:34;27.30;46.70
17998;DHT22;9124;48.144;17.098;2023-07-20T16:33:00;27.00;47.00
17998;DHT22;9124;48.144;17.098;2023-07-20T16:37:27;26.80;47.30
17998;DHT22;9124;48.144;17.098;2023-07-20T16:41:53;26.60;47.70
17998;DHT22;9124;48.144;17.098;2023-07-20T16:46:20;26.40;48.10
17998;DHT22;9124;48.144;17.098;2023-07-20T16:50:46;26.40;48.20
17998;DHT22;9124;48.144;17.098;2023-07-20T16:55:13;26.50;48.20
17998;DHT22;9124;48.144;17.098;2023-07-20T16:59:40;26.50;48.30
17998;DHT22;9124;48.144;17.098;2023-07-20T17:04:06;26.50;48.40
17998;DHT22;9124;48.144;17.098;2023-07-20T17:08:33;26.40;48.30
17998;DHT22;9124;48.144;17.098;2023-07-20T17:13:00;26.30;48.40
17998;DHT22;9124;48.144;17.098;2023-07-20T17:17:26;26.20;48.60
17998;DHT22;9124;48.144;17.098;2023-07-20T17:21:53;25.90;48.60
17998;DHT22;9124;48.144;17.098;2023-07-20T17:26:19;25.70;48.90
17998;DHT22;9124;48.144;17.098;2023-07-20T17:30:45;25.60;49.20
17998;DHT22;9124;48.144;17.098;2023-07-20T17:35:12;25.40;49.40
17998;DHT22;9124;48.144;17.098;2023-07-20T17:39:39;25.30;49.80
17998;DHT22;9124;48.144;17.098;2023-07-20T17:44:05;25.20;49.90
17998;DHT22;9124;48.144;17.098;2023-07-20T17:48:32;25.10;50.30
17998;DHT22;9124;48.144;17.098;2023-07-20T17:52:59;25.00;50.70
17998;DHT22;9124;48.144;17.098;2023-07-20T17:57:26;24.80;51.10
17998;DHT22;9124;48.144;17.098;2023-07-20T18:01:52;24.70;51.40
17998;DHT22;9124;48.144;17.098;2023-07-20T18:06:18;24.60;52.00
17998;DHT22;9124;48.144;17.098;2023-07-20T18:10:44;24.50;52.20
17998;DHT22;9124;48.144;17.098;2023-07-20T18:15:11;24.40;52.40
17998;DHT22;9124;48.144;17.098;2023-07-20T18:19:38;24.20;52.60
17998;DHT22;9124;48.144;17.098;2023-07-20T18:24:04;24.20;52.90
17998;DHT22;9124;48.144;17.098;2023-07-20T18:28:31;24.10;53.10
17998;DHT22;9124;48.144;17.098;2023-07-20T18:32:57;24.00;53.30
17998;DHT22;9124;48.144;17.098;2023-07-20T18:37:24;24.00;53.60
17998;DHT22;9124;48.144;17.098;2023-07-20T18:41:50;24.00;53.70
17998;DHT22;9124;48.144;17.098;2023-07-20T18:46:17;23.90;53.90
17998;DHT22;9124;48.144;17.098;2023-07-20T18:50:46;23.70;54.00
17998;DHT22;9124;48.144;17.098;2023-07-20T18:55:13;23.70;54.20
17998;DHT22;9124;48.144;17.098;2023-07-20T18:59:39;23.70;54.50
17998;DHT22;9124;48.144;17.098;2023-07-20T19:04:07;23.60;54.70
17998;DHT22;9124;48.144;17.098;2023-07-20T19:08:34;23.40;54.80
17998;DHT22;9124;48.144;17.098;2023-07-20T19:13:01;23.30;55.20
17998;DHT22;9124;48.144;17.098;2023-07-20T19:17:27;23.30;55.60
17998;DHT22;9124;48.144;17.098;2023-07-20T19:21:56;23.20;55.80
17998;DHT22;9124;48.144;17.098;2023-07-20T19:26:22;23.30;56.20
17998;DHT22;9124;48.144;17.098;2023-07-20T19:30:49;23.40;56.40
17998;DHT22;9124;48.144;17.098;2023-07-20T19:35:16;23.50;56.60
17998;DHT22;9124;48.144;17.098;2023-07-20T19:39:42;23.60;56.50
17998;DHT22;9124;48.144;17.098;2023-07-20T19:44:09;23.60;56.40
17998;DHT22;9124;48.144;17.098;2023-07-20T19:48:35;23.70;56.40
17998;DHT22;9124;48.144;17.098;2023-07-20T19:53:03;23.70;56.50
17998;DHT22;9124;48.144;17.098;2023-07-20T19:57:29;23.70;56.50
17998;DHT22;9124;48.144;17.098;2023-07-20T20:01:57;23.60;56.30
17998;DHT22;9124;48.144;17.098;2023-07-20T20:06:24;23.50;56.50
17998;DHT22;9124;48.144;17.098;2023-07-20T20:10:50;23.30;56.70
17998;DHT22;9124;48.144;17.098;2023-07-20T20:15:17;23.20;56.60
17998;DHT22;9124;48.144;17.098;2023-07-20T20:19:44;23.20;56.40
17998;DHT22;9124;48.144;17.098;2023-07-20T20:24:10;23.30;56.20
17998;DHT22;9124;48.144;17.098;2023-07-20T20:41:10;23.10;56.10
17998;DHT22;9124;48.144;17.098;2023-07-20T20:45:37;23.10;56.10
17998;DHT22;9124;48.144;17.098;2023-07-20T20:50:03;23.00;56.20
17998;DHT22;9124;48.144;17.098;2023-07-20T20:54:30;22.80;56.30
17998;DHT22;9124;48.144;17.098;2023-07-20T20:58:56;22.70;56.40
17998;DHT22;9124;48.144;17.098;2023-07-20T21:03:22;22.60;56.50
17998;DHT22;9124;48.144;17.098;2023-07-20T21:07:50;22.70;56.60
17998;DHT22;9124;48.144;17.098;2023-07-20T21:12:16;22.60;56.50
17998;DHT22;9124;48.144;17.098;2023-07-20T21:16:43;22.50;56.60
17998;DHT22;9124;48.144;17.098;2023-07-20T21:21:09;22.50;56.80
17998;DHT22;9124;48.144;17.098;2023-07-20T21:25:36;22.40;56.90
17998;DHT22;9124;48.144;17.098;2023-07-20T21:30:02;22.30;57.10
17998;DHT22;9124;48.144;17.098;2023-07-20T21:34:29;22.20;57.20
17998;DHT22;9124;48.144;17.098;2023-07-20T21:38:55;22.30;57.30
17998;DHT22;9124;48.144;17.098;2023-07-20T21:43:24;22.30;57.30
17998;DHT22;9124;48.144;17.098;2023-07-20T21:47:50;22.40;57.30
17998;DHT22;9124;48.144;17.098;2023-07-20T21:52:16;22.40;57.30
17998;DHT22;9124;48.144;17.098;2023-07-20T21:56:42;22.50;57.20
17998;DHT22;9124;48.144;17.098;2023-07-20T22:01:09;22.40;57.00
17998;DHT22;9124;48.144;17.098;2023-07-20T22:05:36;22.40;57.10
17998;DHT22;9124;48.144;17.098;2023-07-20T22:10:07;22.30;57.10
17998;DHT22;9124;48.144;17.098;2023-07-20T22:14:33;22.20;57.20
17998;DHT22;9124;48.144;17.098;2023-07-20T22:19:01;22.20;57.10
17998;DHT22;9124;48.144;17.098;2023-07-20T22:23:27;22.20;57.10
17998;DHT22;9124;48.144;17.098;2023-07-20T22:27:54;22.20;57.20
17998;DHT22;9124;48.144;17.098;2023-07-20T22:32:21;22.10;57.30
17998;DHT22;9124;48.144;17.098;2023-07-20T22:36:47;21.90;57.30
17998;DHT22;9124;48.144;17.098;2023-07-20T22:41:14;21.80;57.50
17998;DHT22;9124;48.144;17.098;2023-07-20T22:45:41;21.80;57.60
17998;DHT22;9124;48.144;17.098;2023-07-20T22:50:08;21.70;57.70
17998;DHT22;9124;48.144;17.098;2023-07-20T22:54:34;21.60;57.80
17998;DHT22;9124;48.144;17.098;2023-07-20T22:59:01;21.50;58.00
17998;DHT22;9124;48.144;17.098;2023-07-20T23:03:27;21.40;58.20
17998;DHT22;9124;48.144;17.098;2023-07-20T23:07:54;21.30;58.40
17998;DHT22;9124;48.144;17.098;2023-07-20T23:12:21;21.20;58.60
17998;DHT22;9124;48.144;17.098;2023-07-20T23:16:47;21.10;58.90
17998;DHT22;9124;48.144;17.098;2023-07-20T23:21:13;21.00;59.10
17998;DHT22;9124;48.144;17.098;2023-07-20T23:25:40;21.00;59.20
17998;DHT22;9124;48.144;17.098;2023-07-20T23:30:07;21.00;59.30
17998;DHT22;9124;48.144;17.098;2023-07-20T23:34:33;21.00;59.30
17998;DHT22;9124;48.144;17.098;2023-07-20T23:39:01;21.00;59.40
17998;DHT22;9124;48.144;17.098;2023-07-20T23:43:28;20.90;59.50
17998;DHT22;9124;48.144;17.098;2023-07-20T23:47:54;20.80;59.70
17998;DHT22;9124;48.144;17.098;2023-07-20T23:52:21;20.70;59.80
17998;DHT22;9124;48.144;17.098;2023-07-20T23:56:47;20.60;60.00
